< Cyclone 200617 2006 Season Cyclone 200622 >
Cyclone 200620 (HUBERT)
General InformationTrack Information on Google MapsDetailed Wind InformationList of All Images || ResourceGoogle EarthGE AnimationAtom FeedGeoJSON
Detalied Best Track (Time Zone = UTC)
Year Month Day Hour Lat. Long. Pressure (hPa) Wind (kt) Class Image Chart
2006 4 2 18 -14.4 115.2 1004 20 2 Image --
2006 4 3 00 -14.4 115.0 1004 20 2 Image --
2006 4 3 06 -14.4 114.6 1000 25 2 Image --
2006 4 3 12 -14.3 114.4 998 25 2 Image --
2006 4 3 18 -14.0 114.3 996 25 2 Image --
2006 4 4 00 -13.8 114.5 996 25 2 Image --
2006 4 4 06 -14.0 115.2 996 25 2 Image --
2006 4 4 12 -14.4 115.8 996 25 2 Image --
2006 4 4 18 -15.0 116.3 996 25 2 Image --
2006 4 5 00 -15.5 116.6 996 25 2 Image --
2006 4 5 06 -16.2 116.7 994 30 2 Image --
2006 4 5 12 -16.7 116.3 990 35 3 Image --
2006 4 5 18 -17.1 116.1 988 40 3 Image --
2006 4 6 00 -17.5 115.9 984 45 3 Image --
2006 4 6 06 -18.2 115.6 980 50 4 Image --
2006 4 6 12 -18.7 115.3 980 50 4 Image --
2006 4 6 18 -19.3 115.0 980 50 4 Image --
2006 4 7 00 -19.9 114.9 980 50 4 Image --
2006 4 7 03 -20.3 115.1 980 50 4 Image --
2006 4 7 06 -20.7 115.3 982 50 4 Image --
2006 4 7 09 -21.1 115.6 986 40 3 Image --
2006 4 7 12 -21.2 115.7 990 35 3 Image --
2006 4 7 15 -21.3 115.6 994 30 2 Image --
2006 4 7 18 -21.4 115.5 994 30 2 Image --
2006 4 8 00 -21.7 115.4 996 25 2 Image --
2006 4 8 06 -21.9 115.4 998 20 2 Image --
2006 4 8 12 -22.1 115.7 1000 20 2 Image --
< Cyclone 200617 2006 Season Cyclone 200622 >

Help